Terminal Aerodrome Forecast
Issued by NWS Cleveland, OH

Home | Current Version | Previous Version | Graphics & Text | Print | Product List | Glossary On
Versions: 1 2 3 4 5 6 7 8 9 10 11 12 13 14 15 16 17 18 19 20 21 22
000
FTUS41 KCLE 242300
TAFYNG
TAF
KYNG 242330Z 2500/2524 22014G20KT P6SM SCT035 OVC070
      TEMPO 2504/2508 3SM -SHSN OVC025
     FM250800 24011KT 6SM -SN BKN025 OVC040
     FM251200 29008KT P6SM VCSH BKN025
     FM251600 30007KT P6SM SCT025 BKN250=

USA.gov is the U.S. government's official web portal to all federal, state and local government web resources and services.